sensor_id;sensor_type;location;lat;lon;timestamp;temperature;humidity
66035;HTU21D;52805;51.074;5.842;2023-01-15T00:01:02;9.09;79.40
66035;HTU21D;52805;51.074;5.842;2023-01-15T00:03:28;9.09;79.40
66035;HTU21D;52805;51.074;5.842;2023-01-15T00:05:54;9.09;79.15
66035;HTU21D;52805;51.074;5.842;2023-01-15T00:08:20;9.02;79.25
66035;HTU21D;52805;51.074;5.842;2023-01-15T00:10:46;9.00;79.21
66035;HTU21D;52805;51.074;5.842;2023-01-15T00:13:12;8.95;79.05
66035;HTU21D;52805;51.074;5.842;2023-01-15T00:15:37;8.90;79.24
66035;HTU21D;52805;51.074;5.842;2023-01-15T00:18:03;8.92;79.06
66035;HTU21D;52805;51.074;5.842;2023-01-15T00:20:29;8.85;79.15
66035;HTU21D;52805;51.074;5.842;2023-01-15T00:22:55;8.86;79.29
66035;HTU21D;52805;51.074;5.842;2023-01-15T00:25:21;8.89;78.85
66035;HTU21D;52805;51.074;5.842;2023-01-15T00:28:05;8.87;78.72
66035;HTU21D;52805;51.074;5.842;2023-01-15T00:30:31;8.83;78.75
66035;HTU21D;52805;51.074;5.842;2023-01-15T00:32:58;8.79;78.85
66035;HTU21D;52805;51.074;5.842;2023-01-15T00:35:25;8.77;78.94
66035;HTU21D;52805;51.074;5.842;2023-01-15T00:37:51;8.73;78.88
66035;HTU21D;52805;51.074;5.842;2023-01-15T00:40:20;8.71;78.82
66035;HTU21D;52805;51.074;5.842;2023-01-15T00:42:46;8.70;78.78
66035;HTU21D;52805;51.074;5.842;2023-01-15T00:45:12;8.65;78.88
66035;HTU21D;52805;51.074;5.842;2023-01-15T00:47:42;8.68;78.66
66035;HTU21D;52805;51.074;5.842;2023-01-15T00:50:13;8.67;78.53
66035;HTU21D;52805;51.074;5.842;2023-01-15T00:52:40;8.63;78.59
66035;HTU21D;52805;51.074;5.842;2023-01-15T00:55:07;8.63;78.50
66035;HTU21D;52805;51.074;5.842;2023-01-15T00:57:33;8.60;78.63
66035;HTU21D;52805;51.074;5.842;2023-01-15T00:59:59;8.59;78.73
66035;HTU21D;52805;51.074;5.842;2023-01-15T01:02:24;8.65;78.41
66035;HTU21D;52805;51.074;5.842;2023-01-15T01:04:50;8.61;78.38
66035;HTU21D;52805;51.074;5.842;2023-01-15T01:07:16;8.57;78.37
66035;HTU21D;52805;51.074;5.842;2023-01-15T01:09:43;8.60;78.18
66035;HTU21D;52805;51.074;5.842;2023-01-15T01:12:09;8.60;78.05
66035;HTU21D;52805;51.074;5.842;2023-01-15T01:14:36;8.59;78.14
66035;HTU21D;52805;51.074;5.842;2023-01-15T01:17:02;8.59;77.89
66035;HTU21D;52805;51.074;5.842;2023-01-15T01:19:28;8.58;78.18
66035;HTU21D;52805;51.074;5.842;2023-01-15T01:21:54;8.59;77.78
66035;HTU21D;52805;51.074;5.842;2023-01-15T01:24:22;8.58;77.83
66035;HTU21D;52805;51.074;5.842;2023-01-15T01:26:49;8.52;78.20
66035;HTU21D;52805;51.074;5.842;2023-01-15T01:29:20;8.53;78.15
66035;HTU21D;52805;51.074;5.842;2023-01-15T01:31:47;8.50;78.37
66035;HTU21D;52805;51.074;5.842;2023-01-15T01:34:13;8.51;78.50
66035;HTU21D;52805;51.074;5.842;2023-01-15T01:36:42;8.50;78.64
66035;HTU21D;52805;51.074;5.842;2023-01-15T01:39:16;8.53;78.60
66035;HTU21D;52805;51.074;5.842;2023-01-15T01:41:44;8.51;78.81
66035;HTU21D;52805;51.074;5.842;2023-01-15T01:47:06;8.52;79.13
66035;HTU21D;52805;51.074;5.842;2023-01-15T01:49:34;8.56;79.09
66035;HTU21D;52805;51.074;5.842;2023-01-15T01:52:08;8.60;79.12
66035;HTU21D;52805;51.074;5.842;2023-01-15T01:54:37;8.59;79.21
66035;HTU21D;52805;51.074;5.842;2023-01-15T01:57:05;8.65;78.85
66035;HTU21D;52805;51.074;5.842;2023-01-15T01:59:33;8.62;79.11
66035;HTU21D;52805;51.074;5.842;2023-01-15T02:01:59;8.57;79.33
66035;HTU21D;52805;51.074;5.842;2023-01-15T02:04:27;8.57;79.30
66035;HTU21D;52805;51.074;5.842;2023-01-15T02:06:54;8.53;79.52
66035;HTU21D;52805;51.074;5.842;2023-01-15T02:09:21;8.52;79.57
66035;HTU21D;52805;51.074;5.842;2023-01-15T02:11:50;8.49;79.78
66035;HTU21D;52805;51.074;5.842;2023-01-15T02:17:03;8.48;79.73
66035;HTU21D;52805;51.074;5.842;2023-01-15T02:28:00;8.55;79.56
66035;HTU21D;52805;51.074;5.842;2023-01-15T02:30:43;8.57;79.53
66035;HTU21D;52805;51.074;5.842;2023-01-15T02:36:18;8.63;79.21
66035;HTU21D;52805;51.074;5.842;2023-01-15T02:38:51;8.58;79.53
66035;HTU21D;52805;51.074;5.842;2023-01-15T02:41:31;8.63;79.49
66035;HTU21D;52805;51.074;5.842;2023-01-15T02:44:02;8.62;79.53
66035;HTU21D;52805;51.074;5.842;2023-01-15T02:46:34;8.64;79.17
66035;HTU21D;52805;51.074;5.842;2023-01-15T02:49:05;8.62;79.41
66035;HTU21D;52805;51.074;5.842;2023-01-15T02:54:26;8.63;79.19
66035;HTU21D;52805;51.074;5.842;2023-01-15T02:56:59;8.62;79.22
66035;HTU21D;52805;51.074;5.842;2023-01-15T02:59:35;8.63;79.31
66035;HTU21D;52805;51.074;5.842;2023-01-15T03:02:18;8.61;79.40
66035;HTU21D;52805;51.074;5.842;2023-01-15T03:04:50;8.62;79.17
66035;HTU21D;52805;51.074;5.842;2023-01-15T03:07:31;8.61;79.21
66035;HTU21D;52805;51.074;5.842;2023-01-15T03:10:00;8.60;79.08
66035;HTU21D;52805;51.074;5.842;2023-01-15T03:18:20;8.52;79.53
66035;HTU21D;52805;51.074;5.842;2023-01-15T03:20:51;8.57;79.30
66035;HTU21D;52805;51.074;5.842;2023-01-15T03:23:23;8.50;79.56
66035;HTU21D;52805;51.074;5.842;2023-01-15T03:25:52;8.52;79.51
66035;HTU21D;52805;51.074;5.842;2023-01-15T03:28:25;8.50;79.66
66035;HTU21D;52805;51.074;5.842;2023-01-15T03:30:52;8.49;79.52
66035;HTU21D;52805;51.074;5.842;2023-01-15T03:33:18;8.48;79.50
66035;HTU21D;52805;51.074;5.842;2023-01-15T03:38:32;8.47;79.36
66035;HTU21D;52805;51.074;5.842;2023-01-15T03:49:35;8.42;79.48
66035;HTU21D;52805;51.074;5.842;2023-01-15T03:52:20;8.38;79.50
66035;HTU21D;52805;51.074;5.842;2023-01-15T03:55:04;8.45;79.00
66035;HTU21D;52805;51.074;5.842;2023-01-15T03:58:04;8.37;79.22
66035;HTU21D;52805;51.074;5.842;2023-01-15T04:00:42;8.37;79.13
66035;HTU21D;52805;51.074;5.842;2023-01-15T04:03:13;8.30;79.53
66035;HTU21D;52805;51.074;5.842;2023-01-15T04:05:42;8.34;79.49
66035;HTU21D;52805;51.074;5.842;2023-01-15T04:08:10;8.33;79.48
66035;HTU21D;52805;51.074;5.842;2023-01-15T04:10:36;8.36;79.27
66035;HTU21D;52805;51.074;5.842;2023-01-15T04:13:05;8.37;79.36
66035;HTU21D;52805;51.074;5.842;2023-01-15T04:15:30;8.36;79.34
66035;HTU21D;52805;51.074;5.842;2023-01-15T04:17:56;8.36;79.52
66035;HTU21D;52805;51.074;5.842;2023-01-15T04:20:23;8.41;79.28
66035;HTU21D;52805;51.074;5.842;2023-01-15T04:22:49;8.41;79.25
66035;HTU21D;52805;51.074;5.842;2023-01-15T04:25:14;8.38;79.38
66035;HTU21D;52805;51.074;5.842;2023-01-15T04:27:40;8.41;79.46
66035;HTU21D;52805;51.074;5.842;2023-01-15T04:30:06;8.37;79.31
66035;HTU21D;52805;51.074;5.842;2023-01-15T04:32:32;8.39;79.31
66035;HTU21D;52805;51.074;5.842;2023-01-15T04:34:58;8.34;79.58
66035;HTU21D;52805;51.074;5.842;2023-01-15T04:37:23;8.39;79.31
66035;HTU21D;52805;51.074;5.842;2023-01-15T04:39:49;8.39;79.49
66035;HTU21D;52805;51.074;5.842;2023-01-15T04:42:15;8.37;79.45
66035;HTU21D;52805;51.074;5.842;2023-01-15T04:44:59;8.38;79.38
66035;HTU21D;52805;51.074;5.842;2023-01-15T04:47:25;8.36;79.49
66035;HTU21D;52805;51.074;5.842;2023-01-15T04:49:50;8.39;79.33
66035;HTU21D;52805;51.074;5.842;2023-01-15T04:52:16;8.41;79.40
66035;HTU21D;52805;51.074;5.842;2023-01-15T04:54:42;8.38;79.24
66035;HTU21D;52805;51.074;5.842;2023-01-15T04:57:07;8.39;79.14
66035;HTU21D;52805;51.074;5.842;2023-01-15T04:59:33;8.33;79.26
66035;HTU21D;52805;51.074;5.842;2023-01-15T05:01:59;8.38;79.17
66035;HTU21D;52805;51.074;5.842;2023-01-15T05:04:25;8.37;79.11
66035;HTU21D;52805;51.074;5.842;2023-01-15T05:06:50;8.35;78.95
66035;HTU21D;52805;51.074;5.842;2023-01-15T05:09:17;8.35;79.00
66035;HTU21D;52805;51.074;5.842;2023-01-15T05:11:43;8.33;79.05
66035;HTU21D;52805;51.074;5.842;2023-01-15T05:14:09;8.34;78.99
66035;HTU21D;52805;51.074;5.842;2023-01-15T05:16:34;8.34;79.11
66035;HTU21D;52805;51.074;5.842;2023-01-15T05:19:04;8.32;79.21
66035;HTU21D;52805;51.074;5.842;2023-01-15T05:21:34;8.34;79.05
66035;HTU21D;52805;51.074;5.842;2023-01-15T05:24:03;8.32;78.98
66035;HTU21D;52805;51.074;5.842;2023-01-15T05:26:31;8.33;78.99
66035;HTU21D;52805;51.074;5.842;2023-01-15T05:28:58;8.37;78.81
66035;HTU21D;52805;51.074;5.842;2023-01-15T05:31:25;8.32;78.98
66035;HTU21D;52805;51.074;5.842;2023-01-15T05:33:53;8.32;79.04
66035;HTU21D;52805;51.074;5.842;2023-01-15T05:36:22;8.33;78.88
66035;HTU21D;52805;51.074;5.842;2023-01-15T05:38:48;8.33;79.12
66035;HTU21D;52805;51.074;5.842;2023-01-15T05:41:16;8.28;79.43
66035;HTU21D;52805;51.074;5.842;2023-01-15T05:44:05;8.32;79.33
66035;HTU21D;52805;51.074;5.842;2023-01-15T05:46:33;8.35;79.30
66035;HTU21D;52805;51.074;5.842;2023-01-15T05:49:05;8.41;78.77
66035;HTU21D;52805;51.074;5.842;2023-01-15T05:51:33;8.43;78.56
66035;HTU21D;52805;51.074;5.842;2023-01-15T05:54:00;8.34;78.62
66035;HTU21D;52805;51.074;5.842;2023-01-15T05:56:26;8.30;78.85
66035;HTU21D;52805;51.074;5.842;2023-01-15T05:58:52;8.32;78.61
66035;HTU21D;52805;51.074;5.842;2023-01-15T06:01:18;8.26;78.86
66035;HTU21D;52805;51.074;5.842;2023-01-15T06:03:44;8.22;78.92
66035;HTU21D;52805;51.074;5.842;2023-01-15T06:06:16;8.23;78.72
66035;HTU21D;52805;51.074;5.842;2023-01-15T06:08:43;8.18;78.87
66035;HTU21D;52805;51.074;5.842;2023-01-15T06:11:08;8.19;78.83
66035;HTU21D;52805;51.074;5.842;2023-01-15T06:13:36;8.17;78.92
66035;HTU21D;52805;51.074;5.842;2023-01-15T06:16:02;8.30;78.43
66035;HTU21D;52805;51.074;5.842;2023-01-15T06:18:28;8.19;78.61
66035;HTU21D;52805;51.074;5.842;2023-01-15T06:20:54;8.22;78.40
66035;HTU21D;52805;51.074;5.842;2023-01-15T06:23:19;8.18;78.57
66035;HTU21D;52805;51.074;5.842;2023-01-15T06:25:45;8.19;78.57
66035;HTU21D;52805;51.074;5.842;2023-01-15T06:28:11;8.23;78.25
66035;HTU21D;52805;51.074;5.842;2023-01-15T06:30:38;8.20;78.15
66035;HTU21D;52805;51.074;5.842;2023-01-15T06:33:05;8.21;78.12
66035;HTU21D;52805;51.074;5.842;2023-01-15T06:35:30;8.12;78.40
66035;HTU21D;52805;51.074;5.842;2023-01-15T06:37:56;8.15;78.25
66035;HTU21D;52805;51.074;5.842;2023-01-15T06:40:22;8.12;78.10
66035;HTU21D;52805;51.074;5.842;2023-01-15T06:42:49;8.09;78.21
66035;HTU21D;52805;51.074;5.842;2023-01-15T06:45:40;8.08;78.08
66035;HTU21D;52805;51.074;5.842;2023-01-15T06:48:25;8.07;78.14
66035;HTU21D;52805;51.074;5.842;2023-01-15T06:50:52;8.11;77.98
66035;HTU21D;52805;51.074;5.842;2023-01-15T06:53:21;8.07;77.85
66035;HTU21D;52805;51.074;5.842;2023-01-15T06:55:47;8.06;77.91
66035;HTU21D;52805;51.074;5.842;2023-01-15T06:58:13;8.09;77.92
66035;HTU21D;52805;51.074;5.842;2023-01-15T07:00:39;8.06;77.78
66035;HTU21D;52805;51.074;5.842;2023-01-15T07:03:07;8.11;77.63
66035;HTU21D;52805;51.074;5.842;2023-01-15T07:05:33;8.05;77.89
66035;HTU21D;52805;51.074;5.842;2023-01-15T07:07:59;8.05;77.89
66035;HTU21D;52805;51.074;5.842;2023-01-15T07:10:25;8.08;77.68
66035;HTU21D;52805;51.074;5.842;2023-01-15T07:12:51;8.04;77.72
66035;HTU21D;52805;51.074;5.842;2023-01-15T07:15:16;8.05;77.85
66035;HTU21D;52805;51.074;5.842;2023-01-15T07:17:42;8.06;77.24
66035;HTU21D;52805;51.074;5.842;2023-01-15T07:20:08;8.08;76.94
66035;HTU21D;52805;51.074;5.842;2023-01-15T07:22:34;8.07;76.47
66035;HTU21D;52805;51.074;5.842;2023-01-15T07:25:00;7.94;77.05
66035;HTU21D;52805;51.074;5.842;2023-01-15T07:27:25;7.94;76.82
66035;HTU21D;52805;51.074;5.842;2023-01-15T07:29:51;7.88;76.87
66035;HTU21D;52805;51.074;5.842;2023-01-15T07:32:18;7.86;76.72
66035;HTU21D;52805;51.074;5.842;2023-01-15T07:34:43;7.82;76.53
66035;HTU21D;52805;51.074;5.842;2023-01-15T07:37:10;7.76;76.62
66035;HTU21D;52805;51.074;5.842;2023-01-15T07:39:36;7.74;76.37
66035;HTU21D;52805;51.074;5.842;2023-01-15T07:42:01;7.72;76.14
66035;HTU21D;52805;51.074;5.842;2023-01-15T07:44:46;7.60;76.26
66035;HTU21D;52805;51.074;5.842;2023-01-15T07:47:30;7.56;76.31
66035;HTU21D;52805;51.074;5.842;2023-01-15T07:50:18;7.59;76.04
66035;HTU21D;52805;51.074;5.842;2023-01-15T07:52:44;7.48;76.39
66035;HTU21D;52805;51.074;5.842;2023-01-15T07:55:11;7.45;76.47
66035;HTU21D;52805;51.074;5.842;2023-01-15T07:57:39;7.42;76.65
66035;HTU21D;52805;51.074;5.842;2023-01-15T08:00:07;7.35;77.04
66035;HTU21D;52805;51.074;5.842;2023-01-15T08:02:37;7.37;77.06
66035;HTU21D;52805;51.074;5.842;2023-01-15T08:05:03;7.34;77.18
66035;HTU21D;52805;51.074;5.842;2023-01-15T08:07:29;7.31;77.51
66035;HTU21D;52805;51.074;5.842;2023-01-15T08:09:55;7.35;77.29
66035;HTU21D;52805;51.074;5.842;2023-01-15T08:12:20;7.31;77.52
66035;HTU21D;52805;51.074;5.842;2023-01-15T08:15:05;7.31;77.73
66035;HTU21D;52805;51.074;5.842;2023-01-15T08:17:43;7.32;77.54
66035;HTU21D;52805;51.074;5.842;2023-01-15T08:20:15;7.26;77.83
66035;HTU21D;52805;51.074;5.842;2023-01-15T08:22:42;7.24;78.05
66035;HTU21D;52805;51.074;5.842;2023-01-15T08:25:10;7.20;78.12
66035;HTU21D;52805;51.074;5.842;2023-01-15T08:27:37;7.20;78.19
66035;HTU21D;52805;51.074;5.842;2023-01-15T08:30:04;7.15;78.48
66035;HTU21D;52805;51.074;5.842;2023-01-15T08:32:30;7.13;78.72
66035;HTU21D;52805;51.074;5.842;2023-01-15T08:34:56;7.10;78.83
66035;HTU21D;52805;51.074;5.842;2023-01-15T08:37:22;7.04;79.15
66035;HTU21D;52805;51.074;5.842;2023-01-15T08:39:47;7.08;79.14
66035;HTU21D;52805;51.074;5.842;2023-01-15T08:42:15;7.08;79.13
66035;HTU21D;52805;51.074;5.842;2023-01-15T08:44:40;7.04;79.43
66035;HTU21D;52805;51.074;5.842;2023-01-15T08:47:07;7.04;79.60
66035;HTU21D;52805;51.074;5.842;2023-01-15T08:49:32;7.08;79.42
66035;HTU21D;52805;51.074;5.842;2023-01-15T08:51:58;7.07;79.50
66035;HTU21D;52805;51.074;5.842;2023-01-15T08:54:25;7.10;79.30
66035;HTU21D;52805;51.074;5.842;2023-01-15T08:56:51;7.10;79.20
66035;HTU21D;52805;51.074;5.842;2023-01-15T08:59:17;7.15;79.22
66035;HTU21D;52805;51.074;5.842;2023-01-15T09:01:42;7.12;79.33
66035;HTU21D;52805;51.074;5.842;2023-01-15T09:04:16;7.24;78.79
66035;HTU21D;52805;51.074;5.842;2023-01-15T09:06:42;7.22;78.88
66035;HTU21D;52805;51.074;5.842;2023-01-15T09:09:08;7.29;78.67
66035;HTU21D;52805;51.074;5.842;2023-01-15T09:11:35;7.29;78.66
66035;HTU21D;52805;51.074;5.842;2023-01-15T09:14:06;7.34;78.69
66035;HTU21D;52805;51.074;5.842;2023-01-15T09:16:32;7.37;78.48
66035;HTU21D;52805;51.074;5.842;2023-01-15T09:18:58;7.52;77.69
66035;HTU21D;52805;51.074;5.842;2023-01-15T09:21:24;7.46;77.77
66035;HTU21D;52805;51.074;5.842;2023-01-15T09:23:49;7.55;77.03
66035;HTU21D;52805;51.074;5.842;2023-01-15T09:26:33;7.52;77.21
66035;HTU21D;52805;51.074;5.842;2023-01-15T09:29:00;7.60;76.90
66035;HTU21D;52805;51.074;5.842;2023-01-15T09:31:26;7.60;76.60
66035;HTU21D;52805;51.074;5.842;2023-01-15T09:33:52;7.60;76.72
66035;HTU21D;52805;51.074;5.842;2023-01-15T09:36:29;7.63;76.25
66035;HTU21D;52805;51.074;5.842;2023-01-15T09:38:56;7.72;75.67
66035;HTU21D;52805;51.074;5.842;2023-01-15T09:41:24;7.64;76.08
66035;HTU21D;52805;51.074;5.842;2023-01-15T09:45:12;7.68;76.08
66035;HTU21D;52805;51.074;5.842;2023-01-15T09:53:01;7.87;74.44
66035;HTU21D;52805;51.074;5.842;2023-01-15T09:55:33;7.87;74.56
66035;HTU21D;52805;51.074;5.842;2023-01-15T09:58:03;7.93;74.33
66035;HTU21D;52805;51.074;5.842;2023-01-15T10:00:39;7.94;74.04
66035;HTU21D;52805;51.074;5.842;2023-01-15T10:03:16;8.04;73.80
66035;HTU21D;52805;51.074;5.842;2023-01-15T10:06:16;8.11;73.76
66035;HTU21D;52805;51.074;5.842;2023-01-15T10:08:48;8.08;73.70
66035;HTU21D;52805;51.074;5.842;2023-01-15T10:16:17;8.21;73.06
66035;HTU21D;52805;51.074;5.842;2023-01-15T10:18:44;8.28;72.54
66035;HTU21D;52805;51.074;5.842;2023-01-15T10:24:11;8.19;72.67
66035;HTU21D;52805;51.074;5.842;2023-01-15T10:32:34;8.39;70.78
66035;HTU21D;52805;51.074;5.842;2023-01-15T10:43:28;8.29;71.16
66035;HTU21D;52805;51.074;5.842;2023-01-15T10:45:59;8.30;70.82
66035;HTU21D;52805;51.074;5.842;2023-01-15T10:51:05;8.28;71.16
66035;HTU21D;52805;51.074;5.842;2023-01-15T10:53:52;8.35;70.84
66035;HTU21D;52805;51.074;5.842;2023-01-15T10:56:36;8.35;70.46
66035;HTU21D;52805;51.074;5.842;2023-01-15T10:59:17;8.29;70.48
66035;HTU21D;52805;51.074;5.842;2023-01-15T11:01:52;8.32;70.41
66035;HTU21D;52805;51.074;5.842;2023-01-15T11:04:19;8.24;71.10
66035;HTU21D;52805;51.074;5.842;2023-01-15T11:06:45;8.32;70.44
66035;HTU21D;52805;51.074;5.842;2023-01-15T11:09:24;8.28;70.38
66035;HTU21D;52805;51.074;5.842;2023-01-15T11:12:18;8.14;71.06
66035;HTU21D;52805;51.074;5.842;2023-01-15T11:14:45;8.27;70.80
66035;HTU21D;52805;51.074;5.842;2023-01-15T11:17:36;8.24;70.97
66035;HTU21D;52805;51.074;5.842;2023-01-15T11:20:33;8.29;70.99
66035;HTU21D;52805;51.074;5.842;2023-01-15T11:23:09;8.29;70.91
66035;HTU21D;52805;51.074;5.842;2023-01-15T11:25:37;8.32;70.36
66035;HTU21D;52805;51.074;5.842;2023-01-15T11:28:09;8.32;70.14
66035;HTU21D;52805;51.074;5.842;2023-01-15T11:30:41;8.31;69.33
66035;HTU21D;52805;51.074;5.842;2023-01-15T11:33:36;8.19;70.23
66035;HTU21D;52805;51.074;5.842;2023-01-15T11:36:06;8.18;70.99
66035;HTU21D;52805;51.074;5.842;2023-01-15T11:38:44;8.30;70.96
66035;HTU21D;52805;51.074;5.842;2023-01-15T11:41:21;8.41;70.46
66035;HTU21D;52805;51.074;5.842;2023-01-15T11:43:56;8.34;71.00
66035;HTU21D;52805;51.074;5.842;2023-01-15T11:46:40;8.37;70.29
66035;HTU21D;52805;51.074;5.842;2023-01-15T11:49:25;8.34;70.61
66035;HTU21D;52805;51.074;5.842;2023-01-15T11:52:14;8.37;70.73
66035;HTU21D;52805;51.074;5.842;2023-01-15T11:54:47;8.34;70.78
66035;HTU21D;52805;51.074;5.842;2023-01-15T11:57:31;8.37;70.95
66035;HTU21D;52805;51.074;5.842;2023-01-15T11:59:58;8.39;70.93
66035;HTU21D;52805;51.074;5.842;2023-01-15T12:02:39;8.43;70.71
66035;HTU21D;52805;51.074;5.842;2023-01-15T12:05:23;8.45;70.69
66035;HTU21D;52805;51.074;5.842;2023-01-15T12:07:53;8.42;71.32
66035;HTU21D;52805;51.074;5.842;2023-01-15T12:10:32;8.47;70.75
66035;HTU21D;52805;51.074;5.842;2023-01-15T12:13:31;8.43;70.03
66035;HTU21D;52805;51.074;5.842;2023-01-15T12:18:56;8.44;69.33
66035;HTU21D;52805;51.074;5.842;2023-01-15T12:21:43;8.47;69.48
66035;HTU21D;52805;51.074;5.842;2023-01-15T12:24:21;8.56;69.58
66035;HTU21D;52805;51.074;5.842;2023-01-15T12:29:58;8.76;69.02
66035;HTU21D;52805;51.074;5.842;2023-01-15T12:32:32;8.76;68.93
66035;HTU21D;52805;51.074;5.842;2023-01-15T12:35:31;8.85;68.73
66035;HTU21D;52805;51.074;5.842;2023-01-15T12:38:21;8.89;68.60
66035;HTU21D;52805;51.074;5.842;2023-01-15T12:40:56;8.93;68.77
66035;HTU21D;52805;51.074;5.842;2023-01-15T12:43:26;9.03;67.99
66035;HTU21D;52805;51.074;5.842;2023-01-15T12:46:18;9.01;68.25
66035;HTU21D;52805;51.074;5.842;2023-01-15T12:51:19;9.12;67.30
66035;HTU21D;52805;51.074;5.842;2023-01-15T12:53:56;9.05;66.94
66035;HTU21D;52805;51.074;5.842;2023-01-15T12:59:16;8.89;67.85
66035;HTU21D;52805;51.074;5.842;2023-01-15T13:07:38;8.81;68.31
66035;HTU21D;52805;51.074;5.842;2023-01-15T13:10:16;8.86;67.91
66035;HTU21D;52805;51.074;5.842;2023-01-15T13:12:44;8.90;67.65
66035;HTU21D;52805;51.074;5.842;2023-01-15T13:15:15;8.92;67.62
66035;HTU21D;52805;51.074;5.842;2023-01-15T13:25:57;9.05;67.48
66035;HTU21D;52805;51.074;5.842;2023-01-15T13:36:47;8.88;67.27
66035;HTU21D;52805;51.074;5.842;2023-01-15T13:39:22;8.85;67.49
66035;HTU21D;52805;51.074;5.842;2023-01-15T13:41:52;8.82;67.48
66035;HTU21D;52805;51.074;5.842;2023-01-15T13:44:45;8.77;67.74
66035;HTU21D;52805;51.074;5.842;2023-01-15T13:47:21;8.80;67.22
66035;HTU21D;52805;51.074;5.842;2023-01-15T13:49:55;8.77;67.49
66035;HTU21D;52805;51.074;5.842;2023-01-15T13:52:30;8.89;66.91
66035;HTU21D;52805;51.074;5.842;2023-01-15T13:55:25;8.85;66.69
66035;HTU21D;52805;51.074;5.842;2023-01-15T13:57:54;8.78;67.30
66035;HTU21D;52805;51.074;5.842;2023-01-15T14:00:27;8.79;67.23
66035;HTU21D;52805;51.074;5.842;2023-01-15T14:03:26;8.76;67.75
66035;HTU21D;52805;51.074;5.842;2023-01-15T14:05:55;8.77;67.58
66035;HTU21D;52805;51.074;5.842;2023-01-15T14:08:39;8.76;67.67
66035;HTU21D;52805;51.074;5.842;2023-01-15T14:16:51;8.74;67.83
66035;HTU21D;52805;51.074;5.842;2023-01-15T14:22:42;8.74;67.66
66035;HTU21D;52805;51.074;5.842;2023-01-15T14:28:41;8.70;67.90
66035;HTU21D;52805;51.074;5.842;2023-01-15T14:36:27;8.72;67.60
66035;HTU21D;52805;51.074;5.842;2023-01-15T14:39:00;8.71;68.13
66035;HTU21D;52805;51.074;5.842;2023-01-15T14:41:31;8.72;68.17
66035;HTU21D;52805;51.074;5.842;2023-01-15T14:44:01;8.73;67.90
66035;HTU21D;52805;51.074;5.842;2023-01-15T14:46:32;8.82;67.56
66035;HTU21D;52805;51.074;5.842;2023-01-15T14:49:00;8.74;67.78
66035;HTU21D;52805;51.074;5.842;2023-01-15T14:51:32;8.71;68.01
66035;HTU21D;52805;51.074;5.842;2023-01-15T14:54:08;8.71;67.96
66035;HTU21D;52805;51.074;5.842;2023-01-15T14:56:44;8.65;68.17
66035;HTU21D;52805;51.074;5.842;2023-01-15T14:59:25;8.73;68.20
66035;HTU21D;52805;51.074;5.842;2023-01-15T15:02:05;8.64;68.85
66035;HTU21D;52805;51.074;5.842;2023-01-15T15:04:45;8.53;69.38
66035;HTU21D;52805;51.074;5.842;2023-01-15T15:07:20;8.56;69.55
66035;HTU21D;52805;51.074;5.842;2023-01-15T15:10:20;8.41;70.31
66035;HTU21D;52805;51.074;5.842;2023-01-15T15:15:27;8.34;71.24
66035;HTU21D;52805;51.074;5.842;2023-01-15T15:21:00;8.32;71.89
66035;HTU21D;52805;51.074;5.842;2023-01-15T15:26:31;8.24;72.36
66035;HTU21D;52805;51.074;5.842;2023-01-15T15:29:03;8.18;72.64
66035;HTU21D;52805;51.074;5.842;2023-01-15T15:31:51;8.26;72.58
66035;HTU21D;52805;51.074;5.842;2023-01-15T15:34:27;8.22;72.46
66035;HTU21D;52805;51.074;5.842;2023-01-15T15:37:04;8.27;72.19
66035;HTU21D;52805;51.074;5.842;2023-01-15T15:42:32;8.20;72.51
66035;HTU21D;52805;51.074;5.842;2023-01-15T15:45:28;8.21;72.37
66035;HTU21D;52805;51.074;5.842;2023-01-15T15:48:39;8.18;72.54
66035;HTU21D;52805;51.074;5.842;2023-01-15T15:51:33;8.22;72.13
66035;HTU21D;52805;51.074;5.842;2023-01-15T15:56:46;8.16;71.97
66035;HTU21D;52805;51.074;5.842;2023-01-15T15:59:23;8.14;72.13
66035;HTU21D;52805;51.074;5.842;2023-01-15T16:01:52;8.14;71.87
66035;HTU21D;52805;51.074;5.842;2023-01-15T16:04:19;8.17;71.80
66035;HTU21D;52805;51.074;5.842;2023-01-15T16:06:45;8.18;71.67
66035;HTU21D;52805;51.074;5.842;2023-01-15T16:09:11;8.14;71.85
66035;HTU21D;52805;51.074;5.842;2023-01-15T16:11:38;8.22;71.51
66035;HTU21D;52805;51.074;5.842;2023-01-15T16:14:09;8.19;71.67
66035;HTU21D;52805;51.074;5.842;2023-01-15T16:16:37;8.21;71.60
66035;HTU21D;52805;51.074;5.842;2023-01-15T16:19:08;8.23;71.49
66035;HTU21D;52805;51.074;5.842;2023-01-15T16:21:40;8.31;70.80
66035;HTU21D;52805;51.074;5.842;2023-01-15T16:24:17;8.29;70.74
66035;HTU21D;52805;51.074;5.842;2023-01-15T16:29:27;8.33;70.64
66035;HTU21D;52805;51.074;5.842;2023-01-15T16:31:54;8.29;70.74
66035;HTU21D;52805;51.074;5.842;2023-01-15T16:34:28;8.29;70.86
66035;HTU21D;52805;51.074;5.842;2023-01-15T16:36:55;8.29;70.76
66035;HTU21D;52805;51.074;5.842;2023-01-15T16:41:54;8.39;70.13
66035;HTU21D;52805;51.074;5.842;2023-01-15T16:44:29;8.23;70.84
66035;HTU21D;52805;51.074;5.842;2023-01-15T16:47:00;8.19;71.26
66035;HTU21D;52805;51.074;5.842;2023-01-15T16:49:29;8.31;70.71
66035;HTU21D;52805;51.074;5.842;2023-01-15T16:51:56;8.21;71.18
66035;HTU21D;52805;51.074;5.842;2023-01-15T16:57:00;8.16;71.61
66035;HTU21D;52805;51.074;5.842;2023-01-15T17:02:15;8.16;71.59
66035;HTU21D;52805;51.074;5.842;2023-01-15T17:04:43;8.14;71.80
66035;HTU21D;52805;51.074;5.842;2023-01-15T17:09:43;8.13;72.06
66035;HTU21D;52805;51.074;5.842;2023-01-15T17:12:25;8.13;72.03
66035;HTU21D;52805;51.074;5.842;2023-01-15T17:14:53;8.15;72.12
66035;HTU21D;52805;51.074;5.842;2023-01-15T17:19:48;8.16;72.06
66035;HTU21D;52805;51.074;5.842;2023-01-15T17:24:54;8.09;72.48
66035;HTU21D;52805;51.074;5.842;2023-01-15T17:27:20;8.12;72.59
66035;HTU21D;52805;51.074;5.842;2023-01-15T17:29:45;8.15;72.51
66035;HTU21D;52805;51.074;5.842;2023-01-15T17:32:19;8.17;72.76
66035;HTU21D;52805;51.074;5.842;2023-01-15T17:34:46;8.09;73.18
66035;HTU21D;52805;51.074;5.842;2023-01-15T17:37:12;8.03;73.67
66035;HTU21D;52805;51.074;5.842;2023-01-15T17:39:37;7.97;74.01
66035;HTU21D;52805;51.074;5.842;2023-01-15T17:42:15;7.98;74.07
66035;HTU21D;52805;51.074;5.842;2023-01-15T17:44:41;7.87;74.57
66035;HTU21D;52805;51.074;5.842;2023-01-15T17:47:08;7.79;75.09
66035;HTU21D;52805;51.074;5.842;2023-01-15T17:49:33;7.76;75.41
66035;HTU21D;52805;51.074;5.842;2023-01-15T17:52:01;7.73;75.60
66035;HTU21D;52805;51.074;5.842;2023-01-15T17:54:28;7.65;75.86
66035;HTU21D;52805;51.074;5.842;2023-01-15T17:57:12;7.62;76.31
66035;HTU21D;52805;51.074;5.842;2023-01-15T17:59:57;7.55;76.49
66035;HTU21D;52805;51.074;5.842;2023-01-15T18:02:42;7.52;76.58
66035;HTU21D;52805;51.074;5.842;2023-01-15T18:05:27;7.52;76.44
66035;HTU21D;52805;51.074;5.842;2023-01-15T18:08:02;7.55;76.59
66035;HTU21D;52805;51.074;5.842;2023-01-15T18:10:30;7.44;76.76
66035;HTU21D;52805;51.074;5.842;2023-01-15T18:12:55;7.48;76.30
66035;HTU21D;52805;51.074;5.842;2023-01-15T18:15:21;7.40;76.48
66035;HTU21D;52805;51.074;5.842;2023-01-15T18:17:47;7.38;76.62
66035;HTU21D;52805;51.074;5.842;2023-01-15T18:20:13;7.34;76.68
66035;HTU21D;52805;51.074;5.842;2023-01-15T18:22:38;7.29;76.71
66035;HTU21D;52805;51.074;5.842;2023-01-15T18:25:05;7.29;76.75
66035;HTU21D;52805;51.074;5.842;2023-01-15T18:27:31;7.27;76.62